sensor_id;sensor_type;location;lat;lon;timestamp;P1;durP1;ratioP1;P2;durP2;ratioP2
72201;SDS011;60105;54.956;73.412;2022-07-25T00:00:38;13.60;;;6.07;;
72201;SDS011;60105;54.956;73.412;2022-07-25T00:03:09;10.18;;;6.10;;
72201;SDS011;60105;54.956;73.412;2022-07-25T00:05:35;11.00;;;5.80;;
72201;SDS011;60105;54.956;73.412;2022-07-25T00:08:01;14.93;;;6.13;;
72201;SDS011;60105;54.956;73.412;2022-07-25T00:10:27;12.20;;;6.50;;
72201;SDS011;60105;54.956;73.412;2022-07-25T00:12:56;10.37;;;6.20;;
72201;SDS011;60105;54.956;73.412;2022-07-25T00:15:33;9.73;;;5.50;;
72201;SDS011;60105;54.956;73.412;2022-07-25T00:17:59;11.00;;;6.68;;
72201;SDS011;60105;54.956;73.412;2022-07-25T00:20:25;10.30;;;5.95;;
72201;SDS011;60105;54.956;73.412;2022-07-25T00:22:52;11.00;;;6.03;;
72201;SDS011;60105;54.956;73.412;2022-07-25T00:25:18;12.97;;;6.17;;
72201;SDS011;60105;54.956;73.412;2022-07-25T00:27:44;11.60;;;6.13;;
72201;SDS011;60105;54.956;73.412;2022-07-25T00:30:10;12.65;;;5.80;;
72201;SDS011;60105;54.956;73.412;2022-07-25T00:32:37;12.75;;;5.03;;
72201;SDS011;60105;54.956;73.412;2022-07-25T00:35:03;10.77;;;5.20;;
72201;SDS011;60105;54.956;73.412;2022-07-25T00:37:29;9.60;;;5.50;;
72201;SDS011;60105;54.956;73.412;2022-07-25T00:39:56;14.23;;;6.70;;
72201;SDS011;60105;54.956;73.412;2022-07-25T00:42:24;14.23;;;5.85;;
72201;SDS011;60105;54.956;73.412;2022-07-25T00:44:50;12.15;;;6.15;;
72201;SDS011;60105;54.956;73.412;2022-07-25T00:47:27;11.63;;;5.97;;
72201;SDS011;60105;54.956;73.412;2022-07-25T00:49:53;10.23;;;6.50;;
72201;SDS011;60105;54.956;73.412;2022-07-25T00:52:19;16.35;;;6.05;;
72201;SDS011;60105;54.956;73.412;2022-07-25T00:54:55;15.45;;;6.50;;
72201;SDS011;60105;54.956;73.412;2022-07-25T00:57:21;12.27;;;5.20;;
72201;SDS011;60105;54.956;73.412;2022-07-25T00:59:47;11.60;;;5.50;;
72201;SDS011;60105;54.956;73.412;2022-07-25T01:02:14;9.63;;;5.43;;
72201;SDS011;60105;54.956;73.412;2022-07-25T01:04:40;12.07;;;5.18;;
72201;SDS011;60105;54.956;73.412;2022-07-25T01:07:06;11.10;;;6.57;;
72201;SDS011;60105;54.956;73.412;2022-07-25T01:09:32;8.15;;;5.90;;
72201;SDS011;60105;54.956;73.412;2022-07-25T01:11:59;9.82;;;5.72;;
72201;SDS011;60105;54.956;73.412;2022-07-25T01:14:25;11.67;;;5.93;;
72201;SDS011;60105;54.956;73.412;2022-07-25T01:16:51;8.38;;;4.78;;
72201;SDS011;60105;54.956;73.412;2022-07-25T01:19:22;11.07;;;5.45;;
72201;SDS011;60105;54.956;73.412;2022-07-25T01:21:49;9.00;;;4.82;;
72201;SDS011;60105;54.956;73.412;2022-07-25T01:24:15;17.85;;;6.82;;
72201;SDS011;60105;54.956;73.412;2022-07-25T01:26:49;12.27;;;5.27;;
72201;SDS011;60105;54.956;73.412;2022-07-25T01:29:16;10.90;;;5.47;;
72201;SDS011;60105;54.956;73.412;2022-07-25T01:31:42;12.52;;;5.75;;
72201;SDS011;60105;54.956;73.412;2022-07-25T01:34:08;12.48;;;5.10;;
72201;SDS011;60105;54.956;73.412;2022-07-25T01:36:35;16.98;;;5.45;;
72201;SDS011;60105;54.956;73.412;2022-07-25T01:39:01;20.07;;;6.23;;
72201;SDS011;60105;54.956;73.412;2022-07-25T01:41:27;14.23;;;6.55;;
72201;SDS011;60105;54.956;73.412;2022-07-25T01:43:58;10.23;;;5.25;;
72201;SDS011;60105;54.956;73.412;2022-07-25T01:46:24;16.77;;;6.82;;
72201;SDS011;60105;54.956;73.412;2022-07-25T01:48:50;13.10;;;5.60;;
72201;SDS011;60105;54.956;73.412;2022-07-25T01:51:17;16.10;;;6.57;;
72201;SDS011;60105;54.956;73.412;2022-07-25T01:53:45;15.80;;;6.45;;
72201;SDS011;60105;54.956;73.412;2022-07-25T01:56:11;14.23;;;5.95;;
72201;SDS011;60105;54.956;73.412;2022-07-25T01:58:38;13.40;;;5.85;;
72201;SDS011;60105;54.956;73.412;2022-07-25T02:01:04;13.63;;;5.47;;
72201;SDS011;60105;54.956;73.412;2022-07-25T02:03:30;18.13;;;6.83;;
72201;SDS011;60105;54.956;73.412;2022-07-25T02:06:01;14.18;;;5.55;;
72201;SDS011;60105;54.956;73.412;2022-07-25T02:08:31;14.57;;;5.60;;
72201;SDS011;60105;54.956;73.412;2022-07-25T02:10:57;18.05;;;7.32;;
72201;SDS011;60105;54.956;73.412;2022-07-25T02:13:25;15.85;;;6.75;;
72201;SDS011;60105;54.956;73.412;2022-07-25T02:15:51;14.33;;;5.90;;
72201;SDS011;60105;54.956;73.412;2022-07-25T02:18:22;18.25;;;6.43;;
72201;SDS011;60105;54.956;73.412;2022-07-25T02:20:49;13.68;;;6.00;;
72201;SDS011;60105;54.956;73.412;2022-07-25T02:23:15;15.80;;;6.38;;
72201;SDS011;60105;54.956;73.412;2022-07-25T02:25:46;15.65;;;6.28;;
72201;SDS011;60105;54.956;73.412;2022-07-25T02:28:17;13.97;;;6.43;;
72201;SDS011;60105;54.956;73.412;2022-07-25T02:30:43;14.50;;;6.20;;
72201;SDS011;60105;54.956;73.412;2022-07-25T02:33:09;14.65;;;6.45;;
72201;SDS011;60105;54.956;73.412;2022-07-25T02:35:35;17.60;;;6.53;;
72201;SDS011;60105;54.956;73.412;2022-07-25T02:38:02;15.90;;;6.70;;
72201;SDS011;60105;54.956;73.412;2022-07-25T02:40:28;11.07;;;5.23;;
72201;SDS011;60105;54.956;73.412;2022-07-25T02:42:54;11.20;;;6.15;;
72201;SDS011;60105;54.956;73.412;2022-07-25T02:45:24;10.88;;;5.72;;
72201;SDS011;60105;54.956;73.412;2022-07-25T02:47:50;11.15;;;5.72;;
72201;SDS011;60105;54.956;73.412;2022-07-25T02:50:16;13.30;;;6.88;;
72201;SDS011;60105;54.956;73.412;2022-07-25T02:52:42;14.77;;;5.93;;
72201;SDS011;60105;54.956;73.412;2022-07-25T02:55:09;14.38;;;5.70;;
72201;SDS011;60105;54.956;73.412;2022-07-25T02:57:36;13.93;;;5.70;;
72201;SDS011;60105;54.956;73.412;2022-07-25T03:00:07;12.07;;;5.50;;
72201;SDS011;60105;54.956;73.412;2022-07-25T03:02:39;13.98;;;5.65;;
72201;SDS011;60105;54.956;73.412;2022-07-25T03:05:15;12.27;;;5.40;;
72201;SDS011;60105;54.956;73.412;2022-07-25T03:07:46;10.10;;;5.45;;
72201;SDS011;60105;54.956;73.412;2022-07-25T03:10:12;11.63;;;5.20;;
72201;SDS011;60105;54.956;73.412;2022-07-25T03:12:39;11.98;;;5.30;;
72201;SDS011;60105;54.956;73.412;2022-07-25T03:15:12;13.25;;;5.70;;
72201;SDS011;60105;54.956;73.412;2022-07-25T03:17:41;13.10;;;5.50;;
72201;SDS011;60105;54.956;73.412;2022-07-25T03:20:08;8.70;;;5.65;;
72201;SDS011;60105;54.956;73.412;2022-07-25T03:22:35;8.82;;;4.90;;
72201;SDS011;60105;54.956;73.412;2022-07-25T03:25:02;10.80;;;5.32;;
72201;SDS011;60105;54.956;73.412;2022-07-25T03:27:29;10.32;;;5.10;;
72201;SDS011;60105;54.956;73.412;2022-07-25T03:29:55;13.90;;;5.60;;
72201;SDS011;60105;54.956;73.412;2022-07-25T03:32:23;10.43;;;5.20;;
72201;SDS011;60105;54.956;73.412;2022-07-25T03:34:50;10.52;;;5.95;;
72201;SDS011;60105;54.956;73.412;2022-07-25T03:37:17;17.58;;;5.07;;
72201;SDS011;60105;54.956;73.412;2022-07-25T03:39:43;10.93;;;5.47;;
72201;SDS011;60105;54.956;73.412;2022-07-25T03:42:09;12.03;;;5.63;;
72201;SDS011;60105;54.956;73.412;2022-07-25T03:44:36;12.15;;;5.70;;
72201;SDS011;60105;54.956;73.412;2022-07-25T03:47:03;10.50;;;5.72;;
72201;SDS011;60105;54.956;73.412;2022-07-25T03:49:30;12.25;;;5.53;;
72201;SDS011;60105;54.956;73.412;2022-07-25T03:51:56;12.02;;;5.68;;
72201;SDS011;60105;54.956;73.412;2022-07-25T03:54:22;12.60;;;5.83;;
72201;SDS011;60105;54.956;73.412;2022-07-25T03:56:49;10.15;;;5.40;;
72201;SDS011;60105;54.956;73.412;2022-07-25T03:59:17;9.50;;;5.47;;
72201;SDS011;60105;54.956;73.412;2022-07-25T04:01:45;12.05;;;6.00;;
72201;SDS011;60105;54.956;73.412;2022-07-25T04:04:13;12.45;;;5.00;;
72201;SDS011;60105;54.956;73.412;2022-07-25T04:06:44;8.10;;;4.93;;
72201;SDS011;60105;54.956;73.412;2022-07-25T04:09:11;13.40;;;5.43;;
72201;SDS011;60105;54.956;73.412;2022-07-25T04:11:38;11.50;;;6.15;;
72201;SDS011;60105;54.956;73.412;2022-07-25T04:14:05;9.43;;;5.40;;
72201;SDS011;60105;54.956;73.412;2022-07-25T04:16:41;11.52;;;5.60;;
72201;SDS011;60105;54.956;73.412;2022-07-25T04:19:07;9.30;;;5.77;;
72201;SDS011;60105;54.956;73.412;2022-07-25T04:21:34;10.27;;;5.53;;
72201;SDS011;60105;54.956;73.412;2022-07-25T04:24:00;13.73;;;6.00;;
72201;SDS011;60105;54.956;73.412;2022-07-25T04:26:26;10.63;;;5.97;;
72201;SDS011;60105;54.956;73.412;2022-07-25T04:28:53;8.88;;;5.88;;
72201;SDS011;60105;54.956;73.412;2022-07-25T04:31:24;11.77;;;5.23;;
72201;SDS011;60105;54.956;73.412;2022-07-25T04:34:00;10.27;;;6.35;;
72201;SDS011;60105;54.956;73.412;2022-07-25T04:36:26;9.43;;;5.63;;
72201;SDS011;60105;54.956;73.412;2022-07-25T04:38:52;12.50;;;5.95;;
72201;SDS011;60105;54.956;73.412;2022-07-25T04:41:19;10.88;;;6.55;;
72201;SDS011;60105;54.956;73.412;2022-07-25T04:43:45;10.33;;;5.87;;
72201;SDS011;60105;54.956;73.412;2022-07-25T04:46:11;9.93;;;5.82;;
72201;SDS011;60105;54.956;73.412;2022-07-25T04:48:37;9.57;;;5.70;;
72201;SDS011;60105;54.956;73.412;2022-07-25T04:51:04;10.80;;;5.72;;
72201;SDS011;60105;54.956;73.412;2022-07-25T04:53:35;8.38;;;5.35;;
72201;SDS011;60105;54.956;73.412;2022-07-25T04:56:01;9.47;;;6.27;;
72201;SDS011;60105;54.956;73.412;2022-07-25T04:58:27;9.35;;;5.60;;
72201;SDS011;60105;54.956;73.412;2022-07-25T05:00:53;11.80;;;5.38;;
72201;SDS011;60105;54.956;73.412;2022-07-25T05:03:19;12.82;;;6.00;;
72201;SDS011;60105;54.956;73.412;2022-07-25T05:05:45;10.55;;;5.88;;
72201;SDS011;60105;54.956;73.412;2022-07-25T05:08:12;10.40;;;5.57;;
72201;SDS011;60105;54.956;73.412;2022-07-25T05:10:38;8.52;;;5.40;;
72201;SDS011;60105;54.956;73.412;2022-07-25T05:13:13;8.38;;;5.55;;
72201;SDS011;60105;54.956;73.412;2022-07-25T05:15:39;11.18;;;5.40;;
72201;SDS011;60105;54.956;73.412;2022-07-25T05:18:12;9.38;;;5.03;;
72201;SDS011;60105;54.956;73.412;2022-07-25T05:20:38;9.83;;;4.80;;
72201;SDS011;60105;54.956;73.412;2022-07-25T05:23:04;8.45;;;5.35;;
72201;SDS011;60105;54.956;73.412;2022-07-25T05:25:33;9.23;;;5.40;;
72201;SDS011;60105;54.956;73.412;2022-07-25T05:27:59;8.35;;;5.00;;
72201;SDS011;60105;54.956;73.412;2022-07-25T05:30:33;11.15;;;5.15;;
72201;SDS011;60105;54.956;73.412;2022-07-25T05:32:59;10.50;;;5.33;;
72201;SDS011;60105;54.956;73.412;2022-07-25T05:35:26;6.97;;;4.60;;
72201;SDS011;60105;54.956;73.412;2022-07-25T05:37:52;14.20;;;5.40;;
72201;SDS011;60105;54.956;73.412;2022-07-25T05:40:18;8.90;;;4.72;;
72201;SDS011;60105;54.956;73.412;2022-07-25T05:42:44;9.73;;;4.53;;
72201;SDS011;60105;54.956;73.412;2022-07-25T05:45:10;9.40;;;4.13;;
72201;SDS011;60105;54.956;73.412;2022-07-25T05:47:46;9.23;;;4.45;;
72201;SDS011;60105;54.956;73.412;2022-07-25T05:50:12;7.60;;;4.05;;
72201;SDS011;60105;54.956;73.412;2022-07-25T05:52:38;7.38;;;3.85;;
72201;SDS011;60105;54.956;73.412;2022-07-25T05:55:04;6.60;;;4.28;;
72201;SDS011;60105;54.956;73.412;2022-07-25T05:57:31;8.07;;;4.87;;
72201;SDS011;60105;54.956;73.412;2022-07-25T05:59:57;6.78;;;4.28;;
72201;SDS011;60105;54.956;73.412;2022-07-25T06:02:28;8.35;;;4.05;;
72201;SDS011;60105;54.956;73.412;2022-07-25T06:04:54;8.45;;;4.20;;
72201;SDS011;60105;54.956;73.412;2022-07-25T06:07:20;6.15;;;3.60;;
72201;SDS011;60105;54.956;73.412;2022-07-25T06:09:47;6.43;;;3.57;;
72201;SDS011;60105;54.956;73.412;2022-07-25T06:12:13;8.18;;;4.13;;
72201;SDS011;60105;54.956;73.412;2022-07-25T06:14:39;6.25;;;3.90;;
72201;SDS011;60105;54.956;73.412;2022-07-25T06:17:05;7.35;;;4.05;;
72201;SDS011;60105;54.956;73.412;2022-07-25T06:19:32;5.80;;;3.65;;
72201;SDS011;60105;54.956;73.412;2022-07-25T06:21:58;11.87;;;5.50;;
72201;SDS011;60105;54.956;73.412;2022-07-25T06:24:24;9.02;;;4.47;;
72201;SDS011;60105;54.956;73.412;2022-07-25T06:26:53;10.23;;;4.07;;
72201;SDS011;60105;54.956;73.412;2022-07-25T06:29:19;7.90;;;4.45;;
72201;SDS011;60105;54.956;73.412;2022-07-25T06:31:54;8.73;;;4.38;;
72201;SDS011;60105;54.956;73.412;2022-07-25T06:34:27;8.93;;;4.83;;
72201;SDS011;60105;54.956;73.412;2022-07-25T06:37:01;7.28;;;4.65;;
72201;SDS011;60105;54.956;73.412;2022-07-25T06:39:27;8.43;;;4.63;;
72201;SDS011;60105;54.956;73.412;2022-07-25T06:41:53;11.10;;;4.20;;
72201;SDS011;60105;54.956;73.412;2022-07-25T06:44:19;8.07;;;4.47;;
72201;SDS011;60105;54.956;73.412;2022-07-25T06:46:46;11.10;;;4.23;;
72201;SDS011;60105;54.956;73.412;2022-07-25T06:49:12;9.70;;;5.00;;
72201;SDS011;60105;54.956;73.412;2022-07-25T06:51:38;8.30;;;4.50;;
72201;SDS011;60105;54.956;73.412;2022-07-25T06:54:04;7.43;;;4.65;;
72201;SDS011;60105;54.956;73.412;2022-07-25T06:56:30;8.07;;;4.25;;
72201;SDS011;60105;54.956;73.412;2022-07-25T06:58:58;8.27;;;4.30;;
72201;SDS011;60105;54.956;73.412;2022-07-25T07:01:32;7.30;;;4.70;;
72201;SDS011;60105;54.956;73.412;2022-07-25T07:03:59;10.75;;;4.32;;
72201;SDS011;60105;54.956;73.412;2022-07-25T07:06:25;7.20;;;4.10;;
72201;SDS011;60105;54.956;73.412;2022-07-25T07:08:51;6.72;;;4.15;;
72201;SDS011;60105;54.956;73.412;2022-07-25T07:11:17;8.87;;;4.53;;
72201;SDS011;60105;54.956;73.412;2022-07-25T07:13:43;6.60;;;4.40;;
72201;SDS011;60105;54.956;73.412;2022-07-25T07:16:10;7.78;;;4.70;;
72201;SDS011;60105;54.956;73.412;2022-07-25T07:18:46;8.52;;;3.97;;
72201;SDS011;60105;54.956;73.412;2022-07-25T07:21:13;8.93;;;4.50;;
72201;SDS011;60105;54.956;73.412;2022-07-25T07:23:39;9.37;;;4.17;;
72201;SDS011;60105;54.956;73.412;2022-07-25T07:26:06;7.13;;;3.60;;
72201;SDS011;60105;54.956;73.412;2022-07-25T07:28:33;10.75;;;4.80;;
72201;SDS011;60105;54.956;73.412;2022-07-25T07:30:59;12.45;;;4.45;;
72201;SDS011;60105;54.956;73.412;2022-07-25T07:33:25;11.20;;;4.38;;
72201;SDS011;60105;54.956;73.412;2022-07-25T07:35:51;10.17;;;4.20;;
72201;SDS011;60105;54.956;73.412;2022-07-25T07:38:25;8.98;;;4.15;;
72201;SDS011;60105;54.956;73.412;2022-07-25T07:40:52;7.38;;;4.25;;
72201;SDS011;60105;54.956;73.412;2022-07-25T07:43:23;9.05;;;4.28;;
72201;SDS011;60105;54.956;73.412;2022-07-25T07:45:49;9.07;;;3.72;;
72201;SDS011;60105;54.956;73.412;2022-07-25T07:48:15;8.60;;;4.50;;
72201;SDS011;60105;54.956;73.412;2022-07-25T07:50:52;7.78;;;3.78;;
72201;SDS011;60105;54.956;73.412;2022-07-25T07:53:18;9.32;;;4.47;;
72201;SDS011;60105;54.956;73.412;2022-07-25T07:55:51;8.25;;;3.80;;
72201;SDS011;60105;54.956;73.412;2022-07-25T07:58:19;6.70;;;3.88;;
72201;SDS011;60105;54.956;73.412;2022-07-25T08:00:51;7.00;;;3.77;;
72201;SDS011;60105;54.956;73.412;2022-07-25T08:03:20;6.07;;;4.00;;
72201;SDS011;60105;54.956;73.412;2022-07-25T08:05:47;9.00;;;4.32;;
72201;SDS011;60105;54.956;73.412;2022-07-25T08:08:24;10.63;;;4.25;;
72201;SDS011;60105;54.956;73.412;2022-07-25T08:10:50;13.02;;;4.38;;
72201;SDS011;60105;54.956;73.412;2022-07-25T08:13:23;8.80;;;4.20;;
72201;SDS011;60105;54.956;73.412;2022-07-25T08:15:52;7.65;;;3.90;;
72201;SDS011;60105;54.956;73.412;2022-07-25T08:18:22;8.27;;;3.92;;
72201;SDS011;60105;54.956;73.412;2022-07-25T08:20:49;7.18;;;4.03;;
72201;SDS011;60105;54.956;73.412;2022-07-25T08:23:16;12.52;;;4.40;;
72201;SDS011;60105;54.956;73.412;2022-07-25T08:25:43;8.90;;;3.97;;
72201;SDS011;60105;54.956;73.412;2022-07-25T08:28:20;8.65;;;3.88;;
72201;SDS011;60105;54.956;73.412;2022-07-25T08:30:46;7.47;;;4.03;;
72201;SDS011;60105;54.956;73.412;2022-07-25T08:33:13;9.63;;;4.70;;
72201;SDS011;60105;54.956;73.412;2022-07-25T08:35:44;10.43;;;4.85;;
72201;SDS011;60105;54.956;73.412;2022-07-25T08:38:18;9.70;;;4.50;;
72201;SDS011;60105;54.956;73.412;2022-07-25T08:40:48;8.20;;;4.28;;
72201;SDS011;60105;54.956;73.412;2022-07-25T08:43:15;9.18;;;4.30;;
72201;SDS011;60105;54.956;73.412;2022-07-25T08:45:46;7.38;;;4.28;;
72201;SDS011;60105;54.956;73.412;2022-07-25T08:48:18;7.22;;;4.40;;
72201;SDS011;60105;54.956;73.412;2022-07-25T08:50:46;7.60;;;4.47;;
72201;SDS011;60105;54.956;73.412;2022-07-25T08:53:14;10.07;;;4.05;;
72201;SDS011;60105;54.956;73.412;2022-07-25T08:55:42;8.57;;;3.88;;
72201;SDS011;60105;54.956;73.412;2022-07-25T08:58:10;10.07;;;4.32;;
72201;SDS011;60105;54.956;73.412;2022-07-25T09:00:38;10.80;;;4.03;;
72201;SDS011;60105;54.956;73.412;2022-07-25T09:03:15;8.53;;;3.90;;
72201;SDS011;60105;54.956;73.412;2022-07-25T09:05:41;7.68;;;4.38;;
72201;SDS011;60105;54.956;73.412;2022-07-25T09:08:08;9.95;;;3.90;;
72201;SDS011;60105;54.956;73.412;2022-07-25T09:10:36;9.07;;;4.40;;
72201;SDS011;60105;54.956;73.412;2022-07-25T09:13:07;9.07;;;4.05;;
72201;SDS011;60105;54.956;73.412;2022-07-25T09:15:44;6.73;;;4.10;;
72201;SDS011;60105;54.956;73.412;2022-07-25T09:18:15;9.55;;;4.03;;
72201;SDS011;60105;54.956;73.412;2022-07-25T09:20:49;6.72;;;4.22;;
72201;SDS011;60105;54.956;73.412;2022-07-25T09:23:31;7.50;;;4.20;;
72201;SDS011;60105;54.956;73.412;2022-07-25T09:26:06;8.55;;;4.18;;
72201;SDS011;60105;54.956;73.412;2022-07-25T09:28:46;11.07;;;4.33;;
72201;SDS011;60105;54.956;73.412;2022-07-25T09:31:15;6.75;;;4.05;;
72201;SDS011;60105;54.956;73.412;2022-07-25T09:33:44;8.45;;;4.13;;
72201;SDS011;60105;54.956;73.412;2022-07-25T09:36:18;8.13;;;3.80;;
72201;SDS011;60105;54.956;73.412;2022-07-25T09:38:54;6.50;;;3.90;;
72201;SDS011;60105;54.956;73.412;2022-07-25T09:41:36;7.63;;;4.17;;
72201;SDS011;60105;54.956;73.412;2022-07-25T09:44:14;8.35;;;4.15;;
72201;SDS011;60105;54.956;73.412;2022-07-25T09:46:41;7.45;;;3.83;;
72201;SDS011;60105;54.956;73.412;2022-07-25T09:49:07;6.63;;;3.90;;
72201;SDS011;60105;54.956;73.412;2022-07-25T09:54:34;6.87;;;3.63;;
72201;SDS011;60105;54.956;73.412;2022-07-25T09:57:00;7.55;;;4.30;;
72201;SDS011;60105;54.956;73.412;2022-07-25T09:59:26;6.72;;;3.47;;
72201;SDS011;60105;54.956;73.412;2022-07-25T10:02:07;8.48;;;4.28;;
72201;SDS011;60105;54.956;73.412;2022-07-25T10:04:55;7.43;;;3.70;;
72201;SDS011;60105;54.956;73.412;2022-07-25T10:07:44;8.03;;;3.73;;
72201;SDS011;60105;54.956;73.412;2022-07-25T10:13:11;6.85;;;3.58;;
72201;SDS011;60105;54.956;73.412;2022-07-25T10:15:53;6.10;;;3.40;;
72201;SDS011;60105;54.956;73.412;2022-07-25T10:18:21;8.40;;;3.50;;
72201;SDS011;60105;54.956;73.412;2022-07-25T10:20:51;8.67;;;3.20;;
72201;SDS011;60105;54.956;73.412;2022-07-25T10:23:20;6.38;;;3.45;;
72201;SDS011;60105;54.956;73.412;2022-07-25T10:33:57;7.20;;;3.43;;
72201;SDS011;60105;54.956;73.412;2022-07-25T10:36:27;6.35;;;3.15;;
72201;SDS011;60105;54.956;73.412;2022-07-25T10:39:17;6.97;;;3.10;;
72201;SDS011;60105;54.956;73.412;2022-07-25T10:41:50;8.38;;;3.95;;
72201;SDS011;60105;54.956;73.412;2022-07-25T10:44:18;7.47;;;4.07;;
72201;SDS011;60105;54.956;73.412;2022-07-25T10:47:08;5.63;;;3.30;;
72201;SDS011;60105;54.956;73.412;2022-07-25T10:49:38;9.45;;;3.55;;
72201;SDS011;60105;54.956;73.412;2022-07-25T10:52:07;7.20;;;3.55;;
72201;SDS011;60105;54.956;73.412;2022-07-25T10:54:40;6.90;;;3.70;;
72201;SDS011;60105;54.956;73.412;2022-07-25T10:57:14;7.13;;;3.45;;
72201;SDS011;60105;54.956;73.412;2022-07-25T10:59:41;7.50;;;4.37;;
72201;SDS011;60105;54.956;73.412;2022-07-25T11:02:08;11.15;;;3.70;;
72201;SDS011;60105;54.956;73.412;2022-07-25T11:04:41;8.18;;;3.40;;
72201;SDS011;60105;54.956;73.412;2022-07-25T11:07:09;6.03;;;3.63;;
72201;SDS011;60105;54.956;73.412;2022-07-25T11:09:58;9.20;;;3.50;;
72201;SDS011;60105;54.956;73.412;2022-07-25T11:12:31;9.03;;;3.67;;
72201;SDS011;60105;54.956;73.412;2022-07-25T11:15:02;6.55;;;3.70;;
72201;SDS011;60105;54.956;73.412;2022-07-25T11:17:30;6.50;;;3.50;;
72201;SDS011;60105;54.956;73.412;2022-07-25T11:20:07;6.65;;;3.95;;
72201;SDS011;60105;54.956;73.412;2022-07-25T11:22:35;6.22;;;3.58;;
72201;SDS011;60105;54.956;73.412;2022-07-25T11:25:02;7.27;;;3.80;;
72201;SDS011;60105;54.956;73.412;2022-07-25T11:27:36;8.10;;;3.90;;
72201;SDS011;60105;54.956;73.412;2022-07-25T11:30:06;6.13;;;3.47;;
72201;SDS011;60105;54.956;73.412;2022-07-25T11:32:42;6.45;;;3.60;;
72201;SDS011;60105;54.956;73.412;2022-07-25T11:35:30;6.18;;;3.47;;
72201;SDS011;60105;54.956;73.412;2022-07-25T11:37:58;7.03;;;3.30;;
72201;SDS011;60105;54.956;73.412;2022-07-25T11:40:27;7.10;;;3.58;;
72201;SDS011;60105;54.956;73.412;2022-07-25T11:42:54;6.72;;;3.92;;
72201;SDS011;60105;54.956;73.412;2022-07-25T11:45:24;7.53;;;3.70;;
72201;SDS011;60105;54.956;73.412;2022-07-25T11:48:04;9.02;;;3.70;;
72201;SDS011;60105;54.956;73.412;2022-07-25T11:50:36;7.17;;;3.90;;
72201;SDS011;60105;54.956;73.412;2022-07-25T11:53:07;7.28;;;3.88;;
72201;SDS011;60105;54.956;73.412;2022-07-25T11:55:37;7.82;;;3.60;;
72201;SDS011;60105;54.956;73.412;2022-07-25T11:58:17;6.50;;;3.92;;
72201;SDS011;60105;54.956;73.412;2022-07-25T12:00:44;7.22;;;3.25;;
72201;SDS011;60105;54.956;73.412;2022-07-25T12:03:14;8.33;;;3.70;;
72201;SDS011;60105;54.956;73.412;2022-07-25T12:05:42;7.78;;;3.25;;
72201;SDS011;60105;54.956;73.412;2022-07-25T12:08:16;6.90;;;3.92;;
72201;SDS011;60105;54.956;73.412;2022-07-25T12:10:44;6.85;;;3.83;;
72201;SDS011;60105;54.956;73.412;2022-07-25T12:16:10;6.30;;;3.50;;
72201;SDS011;60105;54.956;73.412;2022-07-25T12:18:37;9.23;;;4.00;;
72201;SDS011;60105;54.956;73.412;2022-07-25T12:21:04;5.43;;;3.25;;
72201;SDS011;60105;54.956;73.412;2022-07-25T12:23:30;8.15;;;3.78;;
72201;SDS011;60105;54.956;73.412;2022-07-25T12:26:07;6.88;;;4.00;;
72201;SDS011;60105;54.956;73.412;2022-07-25T12:28:33;5.97;;;2.93;;
72201;SDS011;60105;54.956;73.412;2022-07-25T12:31:00;7.07;;;3.45;;
72201;SDS011;60105;54.956;73.412;2022-07-25T12:33:26;7.57;;;3.20;;
72201;SDS011;60105;54.956;73.412;2022-07-25T12:35:53;7.45;;;3.47;;
72201;SDS011;60105;54.956;73.412;2022-07-25T12:38:19;9.25;;;3.90;;
72201;SDS011;60105;54.956;73.412;2022-07-25T12:40:45;7.37;;;4.00;;
72201;SDS011;60105;54.956;73.412;2022-07-25T12:43:12;7.82;;;3.90;;
72201;SDS011;60105;54.956;73.412;2022-07-25T12:45:38;6.57;;;2.95;;
72201;SDS011;60105;54.956;73.412;2022-07-25T12:48:05;7.28;;;3.80;;
72201;SDS011;60105;54.956;73.412;2022-07-25T12:50:31;8.55;;;3.53;;
72201;SDS011;60105;54.956;73.412;2022-07-25T12:52:57;6.70;;;3.60;;
72201;SDS011;60105;54.956;73.412;2022-07-25T12:55:24;9.20;;;3.40;;
72201;SDS011;60105;54.956;73.412;2022-07-25T12:57:50;5.80;;;3.40;;
72201;SDS011;60105;54.956;73.412;2022-07-25T13:00:18;8.90;;;3.85;;
72201;SDS011;60105;54.956;73.412;2022-07-25T13:02:46;10.98;;;3.45;;
72201;SDS011;60105;54.956;73.412;2022-07-25T13:05:15;8.00;;;3.47;;
72201;SDS011;60105;54.956;73.412;2022-07-25T13:07:42;7.10;;;3.80;;
72201;SDS011;60105;54.956;73.412;2022-07-25T13:10:09;8.05;;;3.72;;
72201;SDS011;60105;54.956;73.412;2022-07-25T13:12:47;8.23;;;3.53;;
72201;SDS011;60105;54.956;73.412;2022-07-25T13:15:13;7.05;;;3.65;;
72201;SDS011;60105;54.956;73.412;2022-07-25T13:17:40;6.83;;;3.80;;
72201;SDS011;60105;54.956;73.412;2022-07-25T13:20:06;14.27;;;4.18;;
72201;SDS011;60105;54.956;73.412;2022-07-25T13:22:39;6.60;;;3.40;;
72201;SDS011;60105;54.956;73.412;2022-07-25T13:25:10;6.70;;;3.72;;
72201;SDS011;60105;54.956;73.412;2022-07-25T13:27:37;8.38;;;3.28;;
72201;SDS011;60105;54.956;73.412;2022-07-25T13:30:04;7.87;;;4.00;;
72201;SDS011;60105;54.956;73.412;2022-07-25T13:32:31;8.02;;;3.97;;
72201;SDS011;60105;54.956;73.412;2022-07-25T13:34:58;8.45;;;3.85;;
72201;SDS011;60105;54.956;73.412;2022-07-25T13:37:24;7.20;;;3.70;;
72201;SDS011;60105;54.956;73.412;2022-07-25T13:39:50;12.13;;;3.83;;
72201;SDS011;60105;54.956;73.412;2022-07-25T13:42:17;7.50;;;3.63;;
72201;SDS011;60105;54.956;73.412;2022-07-25T13:44:48;7.25;;;3.50;;
72201;SDS011;60105;54.956;73.412;2022-07-25T13:47:14;8.10;;;3.45;;
72201;SDS011;60105;54.956;73.412;2022-07-25T13:49:41;7.20;;;3.38;;
72201;SDS011;60105;54.956;73.412;2022-07-25T13:52:07;5.60;;;3.45;;
72201;SDS011;60105;54.956;73.412;2022-07-25T13:54:33;6.70;;;3.50;;
72201;SDS011;60105;54.956;73.412;2022-07-25T13:57:00;8.52;;;4.07;;
72201;SDS011;60105;54.956;73.412;2022-07-25T13:59:28;8.00;;;4.00;;
72201;SDS011;60105;54.956;73.412;2022-07-25T14:01:54;7.47;;;4.00;;
72201;SDS011;60105;54.956;73.412;2022-07-25T14:04:21;10.57;;;4.28;;
72201;SDS011;60105;54.956;73.412;2022-07-25T14:06:47;7.90;;;3.80;;
72201;SDS011;60105;54.956;73.412;2022-07-25T14:09:21;8.70;;;3.88;;
72201;SDS011;60105;54.956;73.412;2022-07-25T14:11:48;10.75;;;4.40;;
72201;SDS011;60105;54.956;73.412;2022-07-25T14:14:14;9.38;;;4.07;;
72201;SDS011;60105;54.956;73.412;2022-07-25T14:16:41;10.70;;;4.53;;
72201;SDS011;60105;54.956;73.412;2022-07-25T14:19:08;11.37;;;4.20;;
72201;SDS011;60105;54.956;73.412;2022-07-25T14:21:34;8.52;;;4.15;;
72201;SDS011;60105;54.956;73.412;2022-07-25T14:24:01;9.65;;;3.75;;
72201;SDS011;60105;54.956;73.412;2022-07-25T14:26:27;9.13;;;4.05;;
72201;SDS011;60105;54.956;73.412;2022-07-25T14:28:55;11.57;;;4.22;;
72201;SDS011;60105;54.956;73.412;2022-07-25T14:31:21;10.17;;;4.70;;
72201;SDS011;60105;54.956;73.412;2022-07-25T14:33:48;11.75;;;4.47;;
72201;SDS011;60105;54.956;73.412;2022-07-25T14:36:14;11.82;;;4.88;;
72201;SDS011;60105;54.956;73.412;2022-07-25T14:38:41;9.15;;;4.43;;
72201;SDS011;60105;54.956;73.412;2022-07-25T14:41:07;10.23;;;5.30;;
72201;SDS011;60105;54.956;73.412;2022-07-25T14:43:33;11.27;;;4.90;;
72201;SDS011;60105;54.956;73.412;2022-07-25T14:45:59;9.65;;;5.07;;
72201;SDS011;60105;54.956;73.412;2022-07-25T14:48:25;10.93;;;4.72;;
72201;SDS011;60105;54.956;73.412;2022-07-25T14:50:52;10.18;;;5.10;;
72201;SDS011;60105;54.956;73.412;2022-07-25T14:53:19;13.85;;;5.03;;